Time;durP1;ratioP1;P1;durP2;ratioP2;P2;SDS_P1;SDS_P2;PMS_P1;PMS_P2;Temp;Humidity;BMP_temperature;BMP_pressure;BME280_temperature;BME280_humidity;BME280_pressure;Samples;Min_cycle;Max_cycle;Signal;HPM_P1;HPM_P2
2022/12/12 00:01:52;;;;;;;8.32;5.95;;;3.60;80.20;;;;;;4970669;28;20545;-65
2022/12/12 00:04:18;;;;;;;8.20;4.78;;;3.60;80.30;;;;;;4970760;28;20082;-66
2022/12/12 00:06:43;;;;;;;13.25;6.90;;;3.60;80.20;;;;;;4971213;28;20034;-66
2022/12/12 00:09:09;;;;;;;9.13;5.72;;;3.60;80.30;;;;;;4972676;28;20410;-66
2022/12/12 00:11:36;;;;;;;6.38;5.13;;;3.60;80.30;;;;;;4970062;28;20122;-66
2022/12/12 00:14:02;;;;;;;8.02;5.47;;;3.60;80.30;;;;;;4970704;28;20027;-58
2022/12/12 00:16:28;;;;;;;6.97;4.38;;;3.60;80.30;;;;;;4953833;28;20018;-65
2022/12/12 00:18:54;;;;;;;7.72;5.38;;;3.50;80.30;;;;;;4972940;28;20489;-65
2022/12/12 00:21:23;;;;;;;8.30;4.35;;;3.60;80.30;;;;;;4969668;28;20041;-65
2022/12/12 00:23:49;;;;;;;7.15;6.03;;;3.60;80.30;;;;;;4972142;28;20039;-57
2022/12/12 00:26:27;;;;;;;6.95;4.57;;;3.60;80.30;;;;;;4970202;28;20033;-65
2022/12/12 00:28:53;;;;;;;8.98;5.65;;;3.60;80.30;;;;;;4964409;28;20031;-65
2022/12/12 00:31:20;;;;;;;5.60;4.35;;;3.60;80.30;;;;;;4969158;28;20031;-65
2022/12/12 00:33:48;;;;;;;7.40;6.45;;;3.60;80.40;;;;;;4971933;28;20038;-65
2022/12/12 00:36:19;;;;;;;7.57;5.63;;;3.60;80.30;;;;;;4970121;28;20027;-57
2022/12/12 00:38:45;;;;;;;8.88;5.40;;;3.60;80.30;;;;;;4972571;28;20501;-65
2022/12/12 00:41:11;;;;;;;10.15;5.68;;;3.60;80.30;;;;;;4970590;28;20022;-59
2022/12/12 00:43:37;;;;;;;8.50;4.55;;;3.60;80.30;;;;;;4970625;28;20046;-65
2022/12/12 00:46:03;;;;;;;6.65;5.05;;;3.60;80.30;;;;;;4968807;28;20389;-66
2022/12/12 00:48:29;;;;;;;8.75;5.63;;;3.60;80.30;;;;;;4972465;28;20114;-66
2022/12/12 00:50:56;;;;;;;8.38;5.10;;;3.60;80.30;;;;;;4969002;28;20176;-65
2022/12/12 00:53:22;;;;;;;7.90;5.10;;;3.60;80.30;;;;;;4971921;28;20038;-58
2022/12/12 00:55:58;;;;;;;7.78;5.38;;;3.60;80.40;;;;;;4971012;28;20054;-66
2022/12/12 00:58:25;;;;;;;9.10;5.50;;;3.60;80.30;;;;;;4960578;28;20569;-66
2022/12/12 01:00:51;;;;;;;8.23;5.53;;;3.60;80.50;;;;;;4969648;28;20474;-65
2022/12/12 01:03:17;;;;;;;7.28;5.47;;;3.60;80.40;;;;;;4970032;28;20039;-66
2022/12/12 01:05:43;;;;;;;7.88;4.82;;;3.60;80.40;;;;;;4969864;28;20035;-66
2022/12/12 01:08:09;;;;;;;8.20;6.10;;;3.60;80.30;;;;;;4973814;28;20052;-66
2022/12/12 01:10:35;;;;;;;9.13;6.55;;;3.60;80.20;;;;;;4973959;28;20331;-58
2022/12/12 01:13:01;;;;;;;7.63;5.82;;;3.60;80.20;;;;;;4970102;28;20029;-58
2022/12/12 01:15:27;;;;;;;7.32;5.35;;;3.60;80.20;;;;;;4970996;28;20027;-58
2022/12/12 01:17:52;;;;;;;8.02;5.35;;;3.60;80.20;;;;;;4972107;28;20547;-58
2022/12/12 01:20:22;;;;;;;11.65;6.07;;;3.60;80.30;;;;;;4970583;28;20038;-58
2022/12/12 01:22:49;;;;;;;10.85;5.00;;;3.60;80.30;;;;;;4970722;28;20041;-58
2022/12/12 01:25:16;;;;;;;7.95;5.03;;;3.60;80.30;;;;;;4970955;28;20106;-66
2022/12/12 01:27:42;;;;;;;8.07;5.47;;;3.60;80.30;;;;;;4962830;28;20371;-66
2022/12/12 01:30:13;;;;;;;5.93;4.50;;;3.60;80.30;;;;;;4969874;28;20022;-66
2022/12/12 01:32:38;;;;;;;8.73;5.88;;;3.60;80.30;;;;;;4968810;28;20031;-66
2022/12/12 01:35:07;;;;;;;7.10;4.93;;;3.60;80.30;;;;;;4969576;28;20049;-66
2022/12/12 01:37:34;;;;;;;10.27;5.82;;;3.60;80.30;;;;;;4970709;28;20082;-59
2022/12/12 01:40:00;;;;;;;8.10;5.95;;;3.60;80.30;;;;;;4969032;28;20058;-58
2022/12/12 01:42:27;;;;;;;8.95;5.60;;;3.60;80.30;;;;;;4971074;28;20118;-65
2022/12/12 01:44:53;;;;;;;8.18;5.00;;;3.60;80.30;;;;;;4967168;28;20054;-66
2022/12/12 01:47:21;;;;;;;8.43;6.03;;;3.60;80.30;;;;;;4971413;28;20043;-59
2022/12/12 01:49:54;;;;;;;8.00;5.35;;;3.60;80.20;;;;;;4967629;28;20409;-58
2022/12/12 01:52:29;;;;;;;7.35;3.95;;;3.60;80.20;;;;;;4970434;28;20119;-57
2022/12/12 01:54:59;;;;;;;7.63;5.28;;;3.60;80.20;;;;;;4960646;28;20031;-58
2022/12/12 01:57:33;;;;;;;8.27;5.70;;;3.50;80.20;;;;;;4970504;28;20023;-66
2022/12/12 02:00:03;;;;;;;9.70;5.60;;;3.50;80.20;;;;;;4968470;28;20127;-66
2022/12/12 02:02:29;;;;;;;7.07;4.72;;;3.50;80.20;;;;;;4970371;28;20359;-65
2022/12/12 02:04:56;;;;;;;8.95;5.40;;;3.50;80.20;;;;;;4967599;28;20035;-66
2022/12/12 02:07:21;;;;;;;8.82;5.57;;;3.50;80.10;;;;;;4970601;28;20030;-58
2022/12/12 02:09:49;;;;;;;5.75;4.55;;;3.50;80.20;;;;;;4969897;28;20035;-58
2022/12/12 02:12:15;;;;;;;8.05;5.72;;;3.50;80.10;;;;;;4969357;28;20031;-58
2022/12/12 02:14:46;;;;;;;9.60;6.55;;;3.50;80.20;;;;;;4967152;28;20023;-65
2022/12/12 02:17:42;;;;;;;10.55;5.55;;;3.50;80.20;;;;;;4968763;28;20027;-66
2022/12/12 02:20:37;;;;;;;8.27;4.43;;;3.50;80.10;;;;;;4969378;28;20022;-66
2022/12/12 02:23:20;;;;;;;9.02;5.97;;;3.50;80.10;;;;;;4970792;28;20031;-66
2022/12/12 02:26:24;;;;;;;8.98;5.88;;;3.50;80.20;;;;;;4968246;28;20038;-66
2022/12/12 02:29:08;;;;;;;8.80;5.95;;;3.50;80.10;;;;;;4969739;28;20383;-65
2022/12/12 02:31:54;;;;;;;6.13;4.53;;;3.40;80.10;;;;;;4969295;28;20486;-66
2022/12/12 02:34:53;;;;;;;6.18;4.88;;;3.40;80.10;;;;;;4958579;28;20121;-66
2022/12/12 02:37:38;;;;;;;7.25;4.80;;;3.50;80.10;;;;;;4968110;28;20435;-66
2022/12/12 02:40:23;;;;;;;7.43;5.18;;;3.40;80.10;;;;;;4968314;28;20035;-65
2022/12/12 02:43:13;;;;;;;9.13;6.10;;;3.50;80.00;;;;;;4969230;28;20050;-65
2022/12/12 02:45:50;;;;;;;6.13;4.68;;;3.40;80.00;;;;;;4968551;28;20084;-66
2022/12/12 02:48:37;;;;;;;6.38;4.95;;;3.40;80.10;;;;;;4963719;28;20548;-66
2022/12/12 02:51:07;;;;;;;6.72;4.22;;;3.40;80.00;;;;;;4964426;28;20469;-65
2022/12/12 02:53:33;;;;;;;8.13;5.18;;;3.40;80.20;;;;;;4967452;28;20059;-58
2022/12/12 02:56:28;;;;;;;9.05;5.70;;;3.40;80.10;;;;;;4969159;28;20034;-58
2022/12/12 02:58:54;;;;;;;6.35;5.18;;;3.40;80.10;;;;;;4966066;28;20038;-65
2022/12/12 03:01:34;;;;;;;11.30;6.00;;;3.40;80.10;;;;;;4969030;28;20031;-65
2022/12/12 03:10:41;;;;;;;9.50;6.18;;;3.40;80.00;;;;;;4967530;28;20041;-65
2022/12/12 03:13:16;;;;;;;9.38;5.35;;;3.40;80.00;;;;;;4966117;28;20516;-58
2022/12/12 03:16:10;;;;;;;5.95;4.85;;;3.40;80.10;;;;;;4973334;28;20078;-65
2022/12/12 03:18:39;;;;;;;10.05;5.10;;;3.40;80.00;;;;;;4970243;28;20149;-65
2022/12/12 03:21:16;;;;;;;9.55;5.53;;;3.30;80.10;;;;;;4973043;28;20054;-65
2022/12/12 03:23:50;;;;;;;6.72;5.10;;;3.30;80.00;;;;;;4971513;28;20034;-65
2022/12/12 03:26:38;;;;;;;8.60;5.80;;;3.30;80.00;;;;;;4973733;28;20105;-65
2022/12/12 03:29:09;;;;;;;8.65;5.18;;;3.30;79.90;;;;;;4963866;28;20038;-65
2022/12/12 03:31:39;;;;;;;8.75;5.35;;;3.30;80.10;;;;;;4972770;28;20023;-58
2022/12/12 03:34:26;;;;;;;6.20;4.85;;;3.30;80.10;;;;;;4971835;28;20030;-58
2022/12/12 03:36:59;;;;;;;5.72;4.68;;;3.30;80.10;;;;;;4971006;28;20102;-65
2022/12/12 03:39:37;;;;;;;7.18;4.78;;;3.20;80.10;;;;;;4973132;28;20034;-65
2022/12/12 03:42:11;;;;;;;10.43;4.97;;;3.10;80.20;;;;;;4971011;28;20027;-65
2022/12/12 03:44:44;;;;;;;8.05;5.18;;;3.10;80.40;;;;;;4973557;28;20042;-58
2022/12/12 03:47:19;;;;;;;9.95;5.60;;;3.10;80.40;;;;;;4974734;28;20042;-65
2022/12/12 03:49:59;;;;;;;10.07;5.45;;;3.10;80.40;;;;;;4972547;28;20029;-58
2022/12/12 03:52:32;;;;;;;6.88;4.93;;;3.00;80.40;;;;;;4965764;28;20490;-59
2022/12/12 03:55:21;;;;;;;5.18;4.60;;;3.00;80.40;;;;;;4970202;28;20543;-66
2022/12/12 03:57:58;;;;;;;6.97;5.55;;;2.90;80.30;;;;;;4972179;28;20489;-66
2022/12/12 04:00:25;;;;;;;7.28;5.32;;;2.90;80.50;;;;;;4972488;28;20093;-65
2022/12/12 04:03:06;;;;;;;9.30;4.97;;;2.90;80.50;;;;;;4971827;28;20031;-65
2022/12/12 04:06:25;;;;;;;7.80;5.43;;;2.90;80.50;;;;;;4969626;28;20054;-58
2022/12/12 04:08:29;;;;;;;11.43;5.82;;;2.80;80.50;;;;;;4971901;28;20039;-66
2022/12/12 04:14:08;;;;;;;8.00;4.75;;;2.80;80.40;;;;;;4972256;28;20528;-66
2022/12/12 04:16:41;;;;;;;8.18;5.47;;;2.80;80.40;;;;;;4970701;28;20038;-65
2022/12/12 04:25:10;;;;;;;6.30;4.65;;;2.60;80.60;;;;;;4972661;28;20529;-58
2022/12/12 04:27:44;;;;;;;8.10;5.13;;;2.60;80.70;;;;;;4971957;28;20070;-59
2022/12/12 04:30:12;;;;;;;5.00;4.10;;;2.60;80.70;;;;;;4971735;28;20037;-65
2022/12/12 04:32:57;;;;;;;7.40;4.78;;;2.50;80.60;;;;;;4971618;28;20023;-65
2022/12/12 04:35:33;;;;;;;7.78;5.00;;;2.50;80.50;;;;;;4971640;28;20027;-65
2022/12/12 04:38:04;;;;;;;11.20;5.43;;;2.40;80.50;;;;;;4970972;28;20023;-65
2022/12/12 04:40:37;;;;;;;9.25;5.53;;;2.40;80.60;;;;;;4969120;28;20031;-59
2022/12/12 04:43:07;;;;;;;6.53;4.43;;;2.40;80.70;;;;;;4970631;28;20046;-65
2022/12/12 04:45:41;;;;;;;9.20;5.30;;;2.30;80.60;;;;;;4972334;28;20038;-66
2022/12/12 04:48:11;;;;;;;8.68;4.82;;;2.30;80.60;;;;;;4967848;28;20027;-62
2022/12/12 04:50:38;;;;;;;6.18;4.78;;;2.20;80.60;;;;;;4971418;28;20022;-65
2022/12/12 04:53:09;;;;;;;7.88;5.20;;;2.20;80.70;;;;;;4967976;28;20046;-65
2022/12/12 04:55:45;;;;;;;7.38;4.80;;;2.20;80.70;;;;;;4958547;28;20023;-65
2022/12/12 04:58:11;;;;;;;7.00;4.55;;;2.10;80.70;;;;;;4968948;28;20026;-65
2022/12/12 05:00:51;;;;;;;6.45;4.70;;;2.10;80.70;;;;;;4967112;28;20022;-65
2022/12/12 05:03:33;;;;;;;7.22;4.68;;;2.20;80.80;;;;;;4966906;28;20027;-66
2022/12/12 05:06:06;;;;;;;11.53;5.60;;;2.10;80.80;;;;;;4967363;28;20122;-65
2022/12/12 05:08:36;;;;;;;6.30;4.05;;;2.00;80.80;;;;;;4968272;28;20084;-65
2022/12/12 05:11:04;;;;;;;7.30;4.68;;;2.00;80.80;;;;;;4967791;28;20030;-58
2022/12/12 05:13:34;;;;;;;8.20;4.60;;;2.00;80.70;;;;;;4966580;28;20114;-58
2022/12/12 05:16:02;;;;;;;7.70;5.35;;;2.00;80.70;;;;;;4970541;28;20022;-65
2022/12/12 05:18:29;;;;;;;9.88;6.00;;;1.90;80.70;;;;;;4971556;28;20027;-60
2022/12/12 05:20:55;;;;;;;10.73;4.22;;;1.90;80.60;;;;;;4970297;28;20541;-58
2022/12/12 05:23:20;;;;;;;6.55;4.85;;;1.90;80.60;;;;;;4983328;28;20122;-58
2022/12/12 05:25:46;;;;;;;6.60;4.82;;;1.90;80.70;;;;;;4970287;28;20030;-58
2022/12/12 05:28:12;;;;;;;7.38;5.20;;;1.90;80.70;;;;;;4968285;28;20444;-65
2022/12/12 05:30:37;;;;;;;5.57;3.90;;;1.80;80.70;;;;;;4970482;28;20026;-65
2022/12/12 05:33:03;;;;;;;8.73;5.20;;;1.80;80.60;;;;;;4950036;28;20482;-65
2022/12/12 05:35:29;;;;;;;5.72;4.60;;;1.80;80.60;;;;;;4969654;28;20053;-65
2022/12/12 05:37:55;;;;;;;9.05;4.55;;;1.80;80.60;;;;;;4968216;28;20046;-65
2022/12/12 05:40:21;;;;;;;8.13;5.15;;;1.80;80.60;;;;;;4969963;28;20023;-65
2022/12/12 05:42:47;;;;;;;7.80;5.53;;;1.80;80.60;;;;;;4968943;28;20030;-59
2022/12/12 05:45:13;;;;;;;8.70;6.03;;;1.80;80.60;;;;;;4970631;28;20038;-65
2022/12/12 05:47:39;;;;;;;8.65;5.18;;;1.80;80.50;;;;;;4971931;28;20035;-65
2022/12/12 05:50:06;;;;;;;6.45;4.60;;;1.70;81.10;;;;;;4968933;28;20034;-58
2022/12/12 05:52:32;;;;;;;6.10;4.10;;;1.70;80.50;;;;;;4969743;28;20050;-58
2022/12/12 05:54:57;;;;;;;6.32;4.65;;;1.70;80.40;;;;;;4969891;28;20029;-65
2022/12/12 05:57:24;;;;;;;7.05;4.63;;;1.70;80.40;;;;;;4970996;28;20035;-58
2022/12/12 05:59:49;;;;;;;5.35;3.63;;;1.70;80.40;;;;;;4963162;28;20540;-58
2022/12/12 06:02:15;;;;;;;7.30;4.35;;;1.60;80.30;;;;;;4970096;28;20031;-58
2022/12/12 06:04:41;;;;;;;5.95;4.63;;;1.60;80.30;;;;;;4967733;28;20109;-58
2022/12/12 06:07:07;;;;;;;8.73;4.90;;;1.60;80.30;;;;;;4969721;28;20031;-59
2022/12/12 06:09:33;;;;;;;8.90;5.55;;;1.60;80.30;;;;;;4969736;28;20035;-65
2022/12/12 06:11:59;;;;;;;5.55;4.78;;;1.50;80.30;;;;;;4969658;28;20029;-59
2022/12/12 06:14:25;;;;;;;8.80;4.88;;;1.50;80.20;;;;;;4970717;28;20034;-59
2022/12/12 06:16:51;;;;;;;7.38;4.18;;;1.50;80.20;;;;;;4970829;28;20031;-66
2022/12/12 06:19:18;;;;;;;8.57;4.38;;;1.40;80.10;;;;;;4970195;28;20034;-65
2022/12/12 06:21:44;;;;;;;8.55;4.93;;;1.50;80.10;;;;;;4967476;28;20065;-65
2022/12/12 06:24:09;;;;;;;6.88;4.15;;;1.40;80.10;;;;;;4969410;28;20046;-58
2022/12/12 06:26:35;;;;;;;9.02;5.65;;;1.40;80.10;;;;;;4970061;28;20034;-65
2022/12/12 06:29:01;;;;;;;6.07;4.15;;;1.40;80.00;;;;;;4952585;28;20126;-65
2022/12/12 06:31:27;;;;;;;6.45;4.63;;;1.30;80.00;;;;;;4969212;28;20106;-65
2022/12/12 06:33:53;;;;;;;8.27;5.22;;;1.30;80.00;;;;;;4969420;28;20039;-65
2022/12/12 06:36:23;;;;;;;7.57;4.95;;;1.30;79.90;;;;;;4968359;28;20038;-65
2022/12/12 06:38:58;;;;;;;5.05;3.80;;;1.30;79.90;;;;;;4969844;28;20030;-66
2022/12/12 06:41:25;;;;;;;5.97;4.35;;;1.30;79.90;;;;;;4970149;28;20490;-58
2022/12/12 06:43:52;;;;;;;9.88;4.95;;;1.20;79.90;;;;;;4969955;28;20069;-65
2022/12/12 06:46:21;;;;;;;6.97;4.75;;;1.20;79.80;;;;;;4972102;28;20041;-65
2022/12/12 06:48:49;;;;;;;6.70;4.70;;;1.20;79.70;;;;;;4973992;28;20023;-59
2022/12/12 06:51:27;;;;;;;6.65;4.03;;;1.20;79.80;;;;;;4973149;28;20054;-58
2022/12/12 06:53:54;;;;;;;8.68;5.05;;;1.10;79.70;;;;;;4973063;28;20050;-65
2022/12/12 06:56:22;;;;;;;7.57;4.80;;;1.10;79.70;;;;;;4973430;28;20115;-65
2022/12/12 06:58:49;;;;;;;6.63;5.78;;;1.00;79.70;;;;;;4971508;28;20039;-59
2022/12/12 07:01:18;;;;;;;7.47;4.68;;;1.00;79.70;;;;;;4966821;28;20130;-64
2022/12/12 07:03:44;;;;;;;7.25;4.72;;;1.00;79.60;;;;;;4973014;28;20114;-65
2022/12/12 07:06:10;;;;;;;8.23;4.18;;;1.00;79.50;;;;;;4974072;28;20035;-66
2022/12/12 07:08:37;;;;;;;6.68;4.70;;;1.00;79.50;;;;;;4973292;28;20126;-58
2022/12/12 07:11:23;;;;;;;7.10;4.30;;;1.00;79.50;;;;;;4972162;28;20023;-65
2022/12/12 07:13:50;;;;;;;6.32;4.65;;;1.00;79.30;;;;;;4972598;28;20043;-58
2022/12/12 07:16:16;;;;;;;11.75;5.40;;;0.90;79.30;;;;;;4972733;28;20023;-58
2022/12/12 07:18:42;;;;;;;5.07;3.75;;;0.90;79.30;;;;;;4973247;28;20034;-65
2022/12/12 07:21:10;;;;;;;7.72;5.15;;;0.90;79.20;;;;;;4973562;28;20035;-65
2022/12/12 07:23:36;;;;;;;5.85;3.88;;;0.90;79.20;;;;;;4972248;28;20030;-65
2022/12/12 07:26:08;;;;;;;11.00;4.28;;;0.90;79.20;;;;;;4973358;28;20050;-65
2022/12/12 07:28:34;;;;;;;8.88;4.97;;;0.80;79.10;;;;;;4973175;28;20027;-65
2022/12/12 07:31:05;;;;;;;10.98;5.10;;;0.80;79.10;;;;;;4973663;28;20015;-66
2022/12/12 07:33:30;;;;;;;6.18;4.18;;;0.80;79.10;;;;;;4972474;28;20034;-65
2022/12/12 07:36:00;;;;;;;8.48;4.78;;;0.70;79.60;;;;;;4972517;28;20039;-66
2022/12/12 07:38:27;;;;;;;8.20;5.18;;;0.70;79.00;;;;;;4971856;28;20042;-66
2022/12/12 07:40:52;;;;;;;6.75;4.38;;;0.70;78.90;;;;;;4971866;28;20030;-65
2022/12/12 07:43:18;;;;;;;9.70;4.80;;;0.70;78.90;;;;;;4972090;28;21643;-65
2022/12/12 07:45:45;;;;;;;9.13;4.88;;;0.70;78.90;;;;;;4971599;28;20065;-66
2022/12/12 07:48:11;;;;;;;5.82;4.32;;;0.70;78.90;;;;;;4969901;28;20073;-59
2022/12/12 07:50:38;;;;;;;5.68;3.92;;;0.70;78.90;;;;;;4972393;28;20033;-65
2022/12/12 07:53:04;;;;;;;8.73;4.38;;;0.70;78.70;;;;;;4971268;28;20039;-66
2022/12/12 07:55:30;;;;;;;6.80;4.80;;;0.70;78.70;;;;;;4971471;28;20034;-67
2022/12/12 07:57:56;;;;;;;5.22;4.53;;;0.60;78.70;;;;;;4972505;28;20035;-67
2022/12/12 08:00:22;;;;;;;4.00;3.60;;;0.70;78.70;;;;;;4970287;28;20391;-58
2022/12/12 08:02:48;;;;;;;8.48;4.97;;;0.60;78.60;;;;;;4967833;28;20039;-59
2022/12/12 08:05:15;;;;;;;7.13;3.38;;;0.60;78.50;;;;;;4966382;28;20077;-61
2022/12/12 08:07:41;;;;;;;5.95;4.90;;;0.60;78.50;;;;;;4971314;28;20030;-66
2022/12/12 08:10:07;;;;;;;7.75;4.60;;;0.60;78.50;;;;;;4968402;28;20039;-65
2022/12/12 08:12:33;;;;;;;8.38;4.68;;;0.60;78.40;;;;;;4972215;28;20098;-64
2022/12/12 08:14:58;;;;;;;9.63;4.85;;;0.60;78.40;;;;;;4970009;28;20027;-60
2022/12/12 08:17:24;;;;;;;8.05;4.32;;;0.70;78.50;;;;;;4970267;28;20030;-60
2022/12/12 08:19:50;;;;;;;5.47;4.10;;;0.70;78.50;;;;;;4970348;28;20034;-60
2022/12/12 08:22:16;;;;;;;6.28;4.72;;;0.80;78.40;;;;;;4968328;28;20493;-60
2022/12/12 08:24:41;;;;;;;7.93;4.50;;;0.80;78.40;;;;;;4970586;28;20034;-60
2022/12/12 08:27:07;;;;;;;6.55;5.10;;;0.80;78.40;;;;;;4971253;28;20027;-60
2022/12/12 08:29:33;;;;;;;11.10;6.60;;;0.90;78.50;;;;;;4971943;28;20066;-62
2022/12/12 08:31:58;;;;;;;8.75;6.05;;;0.90;78.50;;;;;;4970555;28;20027;-60
2022/12/12 08:34:24;;;;;;;8.07;5.00;;;1.00;78.50;;;;;;4969450;28;20042;-60
2022/12/12 08:36:51;;;;;;;6.82;5.10;;;1.00;78.40;;;;;;4966894;28;20451;-61
2022/12/12 08:39:17;;;;;;;7.85;4.22;;;1.10;78.40;;;;;;4971567;28;20035;-65
2022/12/12 08:41:48;;;;;;;9.40;6.18;;;1.10;78.40;;;;;;4971202;28;20501;-67
2022/12/12 08:44:16;;;;;;;9.95;6.60;;;1.20;78.50;;;;;;4968133;28;20651;-66
2022/12/12 08:46:42;;;;;;;9.73;6.40;;;1.20;78.40;;;;;;4968847;28;20491;-66
2022/12/12 08:49:08;;;;;;;8.05;5.80;;;1.30;78.50;;;;;;4971053;28;20071;-62
2022/12/12 08:51:37;;;;;;;10.07;6.22;;;1.30;78.40;;;;;;4971445;28;20027;-63
2022/12/12 08:54:02;;;;;;;10.35;5.80;;;1.40;78.40;;;;;;4968527;28;20046;-63
2022/12/12 08:56:28;;;;;;;16.02;5.78;;;1.30;78.90;;;;;;4970580;28;20023;-62
2022/12/12 08:58:54;;;;;;;10.10;6.45;;;1.30;78.30;;;;;;4970636;28;20030;-63
2022/12/12 09:01:23;;;;;;;11.20;6.05;;;1.30;78.40;;;;;;4969925;28;20041;-63
2022/12/12 09:03:50;;;;;;;8.00;5.65;;;1.30;78.40;;;;;;4970355;28;20085;-62
2022/12/12 09:06:16;;;;;;;10.15;6.60;;;1.30;78.50;;;;;;4967441;28;20563;-62
2022/12/12 09:08:42;;;;;;;7.43;6.07;;;1.30;78.70;;;;;;4963608;28;20038;-63
2022/12/12 09:11:09;;;;;;;7.40;5.10;;;1.30;78.80;;;;;;4969392;28;20038;-62
2022/12/12 09:13:35;;;;;;;11.02;5.68;;;1.30;78.80;;;;;;4961711;28;20384;-61
2022/12/12 09:16:01;;;;;;;11.20;6.03;;;1.30;78.80;;;;;;4964164;28;20039;-63
2022/12/12 09:18:27;;;;;;;11.35;6.45;;;1.30;78.90;;;;;;4966257;28;20034;-63
2022/12/12 09:20:55;;;;;;;10.15;5.10;;;1.30;78.90;;;;;;4969734;28;20566;-63
2022/12/12 09:23:22;;;;;;;14.48;6.53;;;1.30;79.50;;;;;;4968870;28;20038;-62
2022/12/12 09:25:48;;;;;;;8.82;5.47;;;1.30;79.00;;;;;;4960359;28;20043;-60
2022/12/12 09:28:16;;;;;;;8.48;4.80;;;1.40;79.00;;;;;;4963479;28;20082;-60
2022/12/12 09:30:42;;;;;;;10.35;7.45;;;1.40;79.10;;;;;;4967467;28;20019;-61
2022/12/12 09:33:08;;;;;;;8.85;6.15;;;1.40;79.00;;;;;;4967077;28;20027;-63
2022/12/12 09:35:34;;;;;;;9.52;5.57;;;1.40;79.00;;;;;;4969743;28;20061;-61
2022/12/12 09:38:00;;;;;;;7.53;5.25;;;1.40;79.10;;;;;;4966847;28;20120;-63
2022/12/12 09:40:38;;;;;;;7.70;5.28;;;1.40;79.10;;;;;;4969104;28;20026;-60
2022/12/12 09:43:04;;;;;;;9.38;5.97;;;1.40;79.00;;;;;;4967627;28;20505;-62
2022/12/12 09:45:34;;;;;;;9.82;5.25;;;1.40;79.10;;;;;;4968230;28;20069;-61
2022/12/12 09:48:03;;;;;;;12.30;6.90;;;1.50;79.20;;;;;;4970480;28;20089;-60
2022/12/12 09:50:34;;;;;;;8.52;5.72;;;1.50;79.00;;;;;;4966502;28;20014;-63
2022/12/12 09:53:15;;;;;;;8.00;5.18;;;1.60;78.90;;;;;;4962743;28;20062;-63
2022/12/12 09:56:16;;;;;;;12.52;6.80;;;1.70;78.90;;;;;;4970127;28;20469;-61
2022/12/12 09:58:50;;;;;;;10.60;7.47;;;1.70;78.80;;;;;;4960719;28;20109;-60
2022/12/12 10:01:45;;;;;;;13.77;6.88;;;1.70;78.70;;;;;;4965167;28;20034;-62
2022/12/12 10:04:23;;;;;;;10.57;4.65;;;1.80;78.70;;;;;;4965407;28;20490;-62
2022/12/12 10:07:14;;;;;;;9.43;5.80;;;1.70;78.70;;;;;;4969713;28;20039;-60
2022/12/12 10:09:53;;;;;;;10.77;5.78;;;1.70;78.60;;;;;;4963841;28;20059;-60
2022/12/12 10:12:20;;;;;;;11.45;5.85;;;1.70;78.70;;;;;;4964177;28;20463;-60
2022/12/12 10:14:49;;;;;;;8.52;6.18;;;1.70;78.80;;;;;;4968558;28;20022;-60
2022/12/12 10:17:33;;;;;;;11.27;8.25;;;1.80;79.00;;;;;;4968902;28;20089;-61
2022/12/12 10:20:07;;;;;;;13.10;6.93;;;2.20;79.20;;;;;;4969689;28;20444;-60
2022/12/12 10:22:51;;;;;;;11.35;7.18;;;2.90;78.10;;;;;;4965414;28;20121;-60
2022/12/12 10:25:37;;;;;;;11.70;7.63;;;3.50;76.00;;;;;;4968783;28;20030;-63
2022/12/12 10:28:13;;;;;;;14.68;7.40;;;4.10;74.40;;;;;;4969719;28;20031;-62
2022/12/12 10:31:21;;;;;;;10.38;7.82;;;4.50;73.10;;;;;;4964788;28;20028;-62
2022/12/12 10:33:46;;;;;;;10.27;7.28;;;5.00;72.20;;;;;;4968246;28;20937;-63
2022/12/12 10:36:22;;;;;;;11.15;7.30;;;5.00;71.30;;;;;;4970055;28;20023;-60
2022/12/12 10:39:00;;;;;;;10.07;6.28;;;4.80;71.80;;;;;;4970427;28;20035;-62
2022/12/12 10:41:45;;;;;;;13.18;6.80;;;4.60;72.40;;;;;;4970068;28;20038;-61
2022/12/12 10:44:58;;;;;;;12.18;6.50;;;4.70;72.80;;;;;;4963897;28;20031;-60
2022/12/12 10:47:23;;;;;;;12.38;7.55;;;5.10;72.40;;;;;;4964055;28;20054;-61
2022/12/12 10:50:17;;;;;;;10.55;6.68;;;5.60;71.40;;;;;;4970436;28;20029;-61
2022/12/12 10:52:43;;;;;;;12.30;8.07;;;6.50;69.70;;;;;;4968107;28;20050;-61
2022/12/12 10:55:42;;;;;;;11.73;8.27;;;7.20;67.40;;;;;;4966088;28;20033;-63
2022/12/12 10:58:08;;;;;;;9.25;5.65;;;7.60;66.20;;;;;;4968518;28;20043;-63
2022/12/12 11:00:38;;;;;;;8.50;6.07;;;8.00;65.30;;;;;;4969378;28;20033;-61
2022/12/12 11:03:17;;;;;;;11.98;8.23;;;8.40;64.00;;;;;;4968849;28;20042;-62
2022/12/12 11:05:44;;;;;;;10.27;7.30;;;8.50;63.40;;;;;;4969636;28;20031;-63
2022/12/12 11:08:29;;;;;;;13.23;7.65;;;8.60;63.10;;;;;;4970199;28;20482;-63
2022/12/12 11:10:58;;;;;;;12.57;7.03;;;8.70;62.70;;;;;;4965650;28;20031;-61
2022/12/12 11:13:24;;;;;;;12.45;7.13;;;8.70;62.70;;;;;;4963193;28;20516;-61
2022/12/12 11:15:55;;;;;;;13.85;6.72;;;8.80;62.30;;;;;;4969390;28;20062;-61
2022/12/12 11:18:23;;;;;;;10.82;7.22;;;8.80;62.20;;;;;;4966900;28;20081;-61
2022/12/12 11:20:57;;;;;;;11.10;6.60;;;9.20;61.60;;;;;;4969807;28;20500;-62
2022/12/12 11:23:25;;;;;;;14.55;7.63;;;10.40;60.10;;;;;;4971384;28;20826;-61
2022/12/12 11:26:00;;;;;;;13.35;7.43;;;12.00;56.90;;;;;;4964841;28;20027;-63
2022/12/12 11:28:32;;;;;;;15.13;7.20;;;14.00;52.80;;;;;;4965405;28;20022;-63
2022/12/12 11:31:03;;;;;;;12.90;6.32;;;15.70;48.90;;;;;;4971811;28;20478;-63
2022/12/12 11:33:34;;;;;;;10.05;5.13;;;16.90;46.00;;;;;;4973687;28;20441;-62
2022/12/12 11:36:02;;;;;;;9.90;4.93;;;18.00;44.10;;;;;;4973888;28;20027;-63
2022/12/12 11:38:38;;;;;;;9.40;5.15;;;18.60;42.10;;;;;;4974071;28;20039;-62
2022/12/12 11:41:09;;;;;;;8.80;4.88;;;19.00;41.10;;;;;;4974351;28;20038;-63
2022/12/12 11:43:58;;;;;;;18.27;5.60;;;19.10;40.30;;;;;;4974302;28;20027;-63
2022/12/12 11:46:30;;;;;;;9.10;5.60;;;19.40;39.10;;;;;;4966183;28;20026;-63
2022/12/12 11:49:04;;;;;;;9.75;5.80;;;19.80;38.90;;;;;;4967559;28;20030;-63
2022/12/12 11:51:38;;;;;;;8.90;4.43;;;20.30;38.40;;;;;;4986678;28;20078;-63
2022/12/12 11:54:12;;;;;;;9.95;5.05;;;20.80;37.50;;;;;;4973481;28;20100;-63
2022/12/12 11:57:04;;;;;;;9.02;4.68;;;21.00;36.60;;;;;;4962285;28;20747;-63
2022/12/12 11:59:48;;;;;;;11.13;4.28;;;21.00;36.50;;;;;;4967120;28;20030;-62
2022/12/12 12:02:31;;;;;;;9.80;5.32;;;21.10;36.30;;;;;;4968007;28;20037;-59
2022/12/12 12:05:15;;;;;;;;;;;21.10;35.40;;;;;;4973088;28;20077;-59
2022/12/12 12:07:56;;;;;;;10.20;4.70;;;20.90;35.30;;;;;;4976912;28;19949;-61
2022/12/12 12:10:36;;;;;;;9.25;5.90;;;20.80;35.60;;;;;;4973002;28;20035;-61
2022/12/12 12:13:32;;;;;;;8.45;4.22;;;20.80;35.20;;;;;;4968232;28;20062;-61
2022/12/12 12:16:21;;;;;;;8.35;4.70;;;20.80;35.20;;;;;;4969891;28;20022;-63
2022/12/12 12:19:00;;;;;;;7.03;4.40;;;20.80;35.00;;;;;;4972222;28;20035;-63
2022/12/12 12:21:32;;;;;;;7.57;4.40;;;20.60;35.10;;;;;;4965961;28;20626;-61
2022/12/12 12:24:09;;;;;;;7.05;4.03;;;20.90;35.00;;;;;;4972288;28;20019;-61
2022/12/12 12:27:00;;;;;;;8.80;4.25;;;21.40;34.30;;;;;;4973045;28;20053;-61
2022/12/12 12:29:55;;;;;;;9.27;3.80;;;21.70;33.60;;;;;;4973012;28;20085;-64
2022/12/12 12:32:40;;;;;;;6.80;4.40;;;21.60;33.30;;;;;;4971904;28;20039;-63
2022/12/12 12:35:29;;;;;;;8.88;3.85;;;21.40;33.50;;;;;;4971114;28;20023;-63
2022/12/12 12:38:13;;;;;;;7.38;3.80;;;20.90;33.70;;;;;;4966320;28;20053;-62
2022/12/12 12:40:58;;;;;;;4.97;2.90;;;20.30;34.00;;;;;;4972488;28;20043;-61
2022/12/12 12:43:42;;;;;;;8.13;4.43;;;19.70;34.70;;;;;;4971409;28;20039;-64
2022/12/12 12:46:28;;;;;;;5.20;3.28;;;18.90;35.60;;;;;;4970980;28;20062;-64
2022/12/12 12:48:59;;;;;;;7.00;4.07;;;18.10;36.30;;;;;;4971923;28;20101;-64
2022/12/12 12:51:39;;;;;;;8.40;3.80;;;17.40;37.20;;;;;;4969329;28;20042;-65
2022/12/12 12:54:16;;;;;;;7.88;3.90;;;16.60;38.00;;;;;;4970707;28;20400;-65
2022/12/12 12:56:54;;;;;;;7.10;3.95;;;15.50;39.20;;;;;;4968370;28;20081;-62
2022/12/12 12:59:24;;;;;;;7.47;4.43;;;14.30;40.80;;;;;;4968266;28;20026;-62
2022/12/12 13:01:52;;;;;;;8.70;4.38;;;13.20;42.30;;;;;;4969915;28;20043;-63
2022/12/12 13:04:30;;;;;;;8.73;4.47;;;12.50;43.90;;;;;;4971690;28;20379;-67
2022/12/12 13:07:27;;;;;;;5.82;3.88;;;11.80;44.90;;;;;;4968626;28;20039;-68
2022/12/12 13:10:07;;;;;;;8.48;4.63;;;11.60;46.00;;;;;;4970194;28;20061;-68
2022/12/12 13:12:45;;;;;;;6.97;3.97;;;11.70;46.20;;;;;;4970552;28;20064;-62
2022/12/12 13:15:30;;;;;;;9.02;5.22;;;12.10;46.10;;;;;;4970476;28;20038;-68
2022/12/12 13:18:26;;;;;;;8.35;4.10;;;13.00;45.00;;;;;;4971379;28;20256;-62
2022/12/12 13:21:20;;;;;;;7.22;4.65;;;14.50;42.80;;;;;;4946427;28;20493;-68
2022/12/12 13:23:57;;;;;;;7.43;3.83;;;15.80;40.80;;;;;;4964464;28;20101;-61
2022/12/12 13:26:44;;;;;;;9.80;4.18;;;16.40;39.60;;;;;;4971092;28;20480;-63
2022/12/12 13:29:28;;;;;;;6.60;4.13;;;16.10;38.90;;;;;;4971776;28;20093;-62
2022/12/12 13:32:23;;;;;;;7.05;3.85;;;15.00;40.10;;;;;;4970059;28;20115;-69
2022/12/12 13:34:57;;;;;;;15.50;4.65;;;13.80;42.40;;;;;;4970457;28;20039;-68
2022/12/12 13:37:23;;;;;;;6.65;4.20;;;14.00;43.30;;;;;;4970863;28;20019;-69